createdAt,value
2022-10-01T00:02:57.887Z,12.70
2022-10-01T00:09:10.149Z,12.66
2022-10-01T00:15:52.941Z,12.70
2022-10-01T00:21:22.750Z,12.60
2022-10-01T00:27:28.833Z,12.70
2022-10-01T00:33:11.646Z,12.60
2022-10-01T00:38:35.030Z,12.62
2022-10-01T00:44:38.025Z,12.60
2022-10-01T00:50:55.297Z,12.60
2022-10-01T00:56:26.447Z,12.60
2022-10-01T01:02:03.120Z,12.70
2022-10-01T01:08:26.618Z,12.70
2022-10-01T01:14:36.018Z,12.70
2022-10-01T01:20:49.536Z,12.60
2022-10-01T01:27:25.961Z,12.60
2022-10-01T01:33:19.358Z,12.60
2022-10-01T01:38:59.219Z,12.50
2022-10-01T01:44:47.730Z,12.50
2022-10-01T01:51:15.210Z,12.40
2022-10-01T01:57:01.376Z,12.40
2022-10-01T02:02:54.681Z,12.32
2022-10-01T02:08:40.502Z,12.38
2022-10-01T02:14:35.275Z,12.30
2022-10-01T02:20:08.546Z,12.20
2022-10-01T02:26:14.391Z,12.24
2022-10-01T02:32:20.779Z,12.30
2022-10-01T02:37:51.644Z,12.30
2022-10-01T02:43:43.189Z,12.30
2022-10-01T02:50:11.854Z,12.30
2022-10-01T02:56:06.908Z,12.30
2022-10-01T03:01:32.894Z,12.30
2022-10-01T03:07:41.100Z,12.20
2022-10-01T03:13:19.960Z,12.20
2022-10-01T03:18:53.045Z,12.12
2022-10-01T03:24:43.068Z,12.10
2022-10-01T03:30:27.023Z,12.04
2022-10-01T03:35:51.967Z,12.00
2022-10-01T03:41:14.280Z,11.90
2022-10-01T03:46:44.051Z,11.90
2022-10-01T03:52:20.511Z,11.80
2022-10-01T03:58:24.385Z,11.60
2022-10-01T04:06:48.246Z,11.36
2022-10-01T04:12:12.981Z,11.30
2022-10-01T04:17:37.192Z,11.30
2022-10-01T04:23:01.560Z,11.20
2022-10-01T04:28:32.600Z,11.20
2022-10-01T04:34:05.549Z,11.20
2022-10-01T04:39:30.810Z,11.10
2022-10-01T04:45:02.818Z,10.90
2022-10-01T04:50:58.495Z,10.90
2022-10-01T04:57:00.295Z,10.70
2022-10-01T05:02:47.627Z,10.70
2022-10-01T05:08:10.643Z,10.70
2022-10-01T05:13:33.049Z,10.78
2022-10-01T05:18:56.798Z,10.80
2022-10-01T05:24:18.941Z,10.80
2022-10-01T05:29:41.774Z,10.80
2022-10-01T05:35:07.250Z,10.90
2022-10-01T05:40:32.192Z,11.02
2022-10-01T05:46:05.836Z,11.10
2022-10-01T05:51:49.932Z,11.20
2022-10-01T05:57:42.764Z,11.10
2022-10-01T06:03:47.510Z,11.00
2022-10-01T06:09:10.883Z,11.00
2022-10-01T06:14:39.639Z,11.10
2022-10-01T06:20:16.556Z,11.30
2022-10-01T06:25:50.489Z,11.60
2022-10-01T06:31:25.696Z,11.80
2022-10-01T06:37:08.373Z,12.00
2022-10-01T06:43:08.465Z,12.18
2022-10-01T06:48:57.064Z,12.30
2022-10-01T06:54:36.143Z,12.40
2022-10-01T07:00:15.334Z,12.50
2022-10-01T07:06:35.365Z,12.60
2022-10-01T07:12:20.476Z,12.70
2022-10-01T07:17:49.029Z,12.82
2022-10-01T07:23:24.607Z,12.90
2022-10-01T07:28:49.938Z,13.00
2022-10-01T07:34:17.522Z,13.08
2022-10-01T07:39:40.066Z,13.10
2022-10-01T07:45:14.653Z,13.10
2022-10-01T07:50:47.375Z,13.20
2022-10-01T07:56:17.479Z,13.36
2022-10-01T08:01:39.986Z,13.38
2022-10-01T08:07:18.957Z,13.40
2022-10-01T08:12:44.696Z,13.50
2022-10-01T08:18:23.684Z,13.70
2022-10-01T08:23:45.652Z,13.90
2022-10-01T08:29:07.684Z,14.00
2022-10-01T08:34:29.690Z,14.12
2022-10-01T08:39:54.710Z,14.20
2022-10-01T08:45:28.822Z,14.30
2022-10-01T08:51:10.952Z,14.30
2022-10-01T08:56:45.305Z,14.40
2022-10-01T09:02:25.909Z,14.50
2022-10-01T09:08:56.662Z,14.50
2022-10-01T09:15:10.935Z,14.50
2022-10-01T09:20:42.102Z,14.60
2022-10-01T09:26:29.874Z,14.60
2022-10-01T09:32:20.862Z,14.70
2022-10-01T09:38:03.568Z,14.80
2022-10-01T09:43:43.414Z,14.90
2022-10-01T09:49:49.067Z,14.90
2022-10-01T09:56:04.897Z,15.00
2022-10-01T10:02:06.288Z,14.96
2022-10-01T10:07:44.070Z,15.00
2022-10-01T10:13:31.721Z,15.00
2022-10-01T10:19:15.532Z,15.10
2022-10-01T10:24:47.183Z,15.10
2022-10-01T10:30:39.431Z,15.20
2022-10-01T10:36:09.138Z,15.34
2022-10-01T10:41:32.033Z,15.50
2022-10-01T10:47:03.478Z,15.60
2022-10-01T10:52:48.386Z,15.80
2022-10-01T10:58:40.399Z,16.04
2022-10-01T11:04:30.755Z,16.20
2022-10-01T11:10:30.030Z,16.30
2022-10-01T11:16:51.612Z,16.44
2022-10-01T11:23:20.955Z,16.60
2022-10-01T11:29:33.206Z,16.80
2022-10-01T11:35:18.789Z,16.80
2022-10-01T11:41:23.572Z,16.70
2022-10-01T11:47:34.927Z,16.70
2022-10-01T11:53:55.749Z,16.64
2022-10-01T11:59:34.697Z,16.70
2022-10-01T12:05:35.036Z,16.76
2022-10-01T12:11:40.349Z,16.98
2022-10-01T12:17:32.522Z,17.10
2022-10-01T12:23:23.146Z,17.06
2022-10-01T12:30:01.306Z,17.00
2022-10-01T12:36:41.127Z,17.00
2022-10-01T12:43:53.441Z,17.02
2022-10-01T12:49:49.491Z,16.90
2022-10-01T12:56:10.760Z,16.80
2022-10-01T13:02:43.672Z,16.80
2022-10-01T13:09:02.536Z,16.80
2022-10-01T13:14:46.249Z,16.80
2022-10-01T13:21:17.440Z,16.70
2022-10-01T13:26:56.102Z,16.60
2022-10-01T13:32:33.402Z,16.56
2022-10-01T13:38:01.981Z,16.50
2022-10-01T13:43:39.100Z,16.40
2022-10-01T13:49:22.782Z,16.40
2022-10-01T13:55:28.648Z,16.30
2022-10-01T14:00:57.442Z,16.30
2022-10-01T14:07:10.595Z,16.30
2022-10-01T14:13:04.807Z,16.34
2022-10-01T14:18:37.094Z,16.40
2022-10-01T14:24:29.471Z,16.40
2022-10-01T14:30:38.254Z,16.40
2022-10-01T14:36:34.716Z,16.40
2022-10-01T14:42:22.296Z,16.32
2022-10-01T14:47:59.870Z,16.30
2022-10-01T14:53:30.072Z,16.30
2022-10-01T14:59:08.944Z,16.38
2022-10-01T15:05:40.983Z,16.30
2022-10-01T15:11:35.074Z,16.30
2022-10-01T15:17:21.522Z,16.20
2022-10-01T15:23:03.847Z,16.10
2022-10-01T15:28:55.690Z,16.02
2022-10-01T15:34:33.225Z,16.00
2022-10-01T15:40:00.943Z,15.98
2022-10-01T15:45:31.529Z,15.84
2022-10-01T15:51:17.162Z,15.80
2022-10-01T15:56:59.412Z,15.66
2022-10-01T16:02:52.099Z,15.60
2022-10-01T16:09:13.745Z,15.50
2022-10-01T16:15:04.400Z,15.40
2022-10-01T16:21:26.898Z,15.30
2022-10-01T16:27:05.425Z,15.20
2022-10-01T16:33:30.643Z,15.10
2022-10-01T16:39:25.440Z,15.04
2022-10-01T16:45:29.938Z,15.00
2022-10-01T16:51:04.430Z,15.00
2022-10-01T16:57:07.031Z,14.90
2022-10-01T17:02:37.629Z,14.90
2022-10-01T17:08:27.092Z,14.80
2022-10-01T17:14:07.605Z,14.80
2022-10-01T17:20:12.877Z,14.80
2022-10-01T17:25:47.656Z,14.72
2022-10-01T17:31:18.039Z,14.70
2022-10-01T17:37:06.491Z,14.70
2022-10-01T17:42:50.956Z,14.70
2022-10-01T17:48:50.284Z,14.68
2022-10-01T17:54:52.606Z,14.70
2022-10-01T18:00:23.750Z,14.70
2022-10-01T18:06:12.921Z,14.60
2022-10-01T18:11:40.998Z,14.40
2022-10-01T18:17:04.434Z,14.10
2022-10-01T18:22:27.532Z,13.80
2022-10-01T18:27:52.523Z,13.64
2022-10-01T18:33:43.306Z,13.50
2022-10-01T18:39:40.853Z,13.40
2022-10-01T18:45:13.381Z,13.30
2022-10-01T18:51:07.763Z,13.22
2022-10-01T18:56:39.216Z,13.10
2022-10-01T19:02:33.768Z,13.10
2022-10-01T19:08:54.946Z,13.10
2022-10-01T19:15:03.674Z,13.10
2022-10-01T19:21:37.740Z,13.06
2022-10-01T19:28:28.161Z,13.00
2022-10-01T19:34:17.601Z,12.90
2022-10-01T19:40:07.239Z,12.90
2022-10-01T19:46:25.625Z,12.90
2022-10-01T19:52:19.819Z,12.90
2022-10-01T19:58:22.070Z,12.80
2022-10-01T20:04:26.809Z,12.80
2022-10-01T20:10:37.353Z,12.70
2022-10-01T20:16:27.411Z,12.70
2022-10-01T20:22:35.750Z,12.64
2022-10-01T20:28:53.410Z,12.60
2022-10-01T20:34:44.156Z,12.50
2022-10-01T20:41:00.823Z,12.50
2022-10-01T20:47:12.138Z,12.50
2022-10-01T20:53:58.315Z,12.40
2022-10-01T20:59:51.553Z,12.32
2022-10-01T21:06:41.407Z,12.30
2022-10-01T21:13:02.834Z,12.26
2022-10-01T21:19:26.936Z,12.20
2022-10-01T21:25:57.966Z,12.10
2022-10-01T21:32:05.154Z,12.10
2022-10-01T21:38:49.863Z,12.10
2022-10-01T21:45:02.741Z,12.20
2022-10-01T21:51:28.864Z,12.10
2022-10-01T21:58:02.465Z,12.20
2022-10-01T22:04:32.930Z,12.20
2022-10-01T22:11:27.497Z,12.24
2022-10-01T22:17:49.643Z,12.30
2022-10-01T22:23:50.312Z,12.30
2022-10-01T22:29:44.657Z,12.30
2022-10-01T22:35:24.797Z,12.40
2022-10-01T22:41:19.152Z,12.40
2022-10-01T22:48:00.244Z,12.40
2022-10-01T22:54:00.152Z,12.40
2022-10-01T23:00:04.398Z,12.40
2022-10-01T23:06:11.826Z,12.40
2022-10-01T23:12:32.525Z,12.40
2022-10-01T23:19:18.661Z,12.40
2022-10-01T23:26:13.316Z,12.40
2022-10-01T23:33:33.091Z,12.40
2022-10-01T23:40:14.528Z,12.50
2022-10-01T23:46:41.255Z,12.50
2022-10-01T23:53:11.076Z,12.50
2022-10-01T23:59:16.939Z,12.50
